createdAt,value
2018-10-16T00:01:57.703Z,12.60
2018-10-16T00:04:26.227Z,12.60
2018-10-16T00:06:54.718Z,12.60
2018-10-16T00:09:23.244Z,12.60
2018-10-16T00:12:01.693Z,12.60
2018-10-16T00:14:30.583Z,12.60
2018-10-16T00:16:59.471Z,12.60
2018-10-16T00:19:27.930Z,12.60
2018-10-16T00:21:56.402Z,12.60
2018-10-16T00:24:24.882Z,12.60
2018-10-16T00:26:53.386Z,12.60
2018-10-16T00:29:22.495Z,12.60
2018-10-16T00:31:51.256Z,12.60
2018-10-16T00:34:19.749Z,12.60
2018-10-16T00:36:48.332Z,12.70
2018-10-16T00:39:17.447Z,12.70
2018-10-16T00:41:51.225Z,12.70
2018-10-16T00:44:19.750Z,12.70
2018-10-16T00:46:48.214Z,12.70
2018-10-16T00:49:16.694Z,12.70
2018-10-16T00:51:45.237Z,12.70
2018-10-16T00:54:13.723Z,12.70
2018-10-16T00:56:42.197Z,12.70
2018-10-16T00:59:10.704Z,12.70
2018-10-16T01:01:39.153Z,12.70
2018-10-16T01:04:08.378Z,12.70
2018-10-16T01:06:37.578Z,12.80
2018-10-16T01:09:09.441Z,12.80
2018-10-16T01:11:38.213Z,12.70
2018-10-16T01:14:06.740Z,12.70
2018-10-16T01:16:35.251Z,12.80
2018-10-16T01:19:03.758Z,12.80
2018-10-16T01:21:32.277Z,12.80
2018-10-16T01:24:00.758Z,12.70
2018-10-16T01:26:29.239Z,12.70
2018-10-16T01:28:57.723Z,12.70
2018-10-16T01:31:26.581Z,12.60
2018-10-16T01:33:55.182Z,12.60
2018-10-16T01:36:23.670Z,12.50
2018-10-16T01:38:52.200Z,12.60
2018-10-16T01:41:20.658Z,12.50
2018-10-16T01:43:49.214Z,12.50
2018-10-16T01:46:18.008Z,12.50
2018-10-16T01:48:46.477Z,12.40
2018-10-16T01:51:14.926Z,12.40
2018-10-16T01:53:43.400Z,12.20
2018-10-16T01:56:11.865Z,12.20
2018-10-16T01:58:40.342Z,12.20
2018-10-16T02:01:08.811Z,12.10
2018-10-16T02:03:37.282Z,12.10
2018-10-16T02:06:05.743Z,12.10
2018-10-16T02:08:34.198Z,12.10
2018-10-16T02:11:02.691Z,12.10
2018-10-16T02:13:31.130Z,12.00
2018-10-16T02:15:59.614Z,12.00
2018-10-16T02:18:28.054Z,12.00
2018-10-16T02:20:56.513Z,12.00
2018-10-16T02:23:24.963Z,11.90
2018-10-16T02:25:53.426Z,11.90
2018-10-16T02:28:21.858Z,11.80
2018-10-16T02:30:50.348Z,11.80
2018-10-16T02:33:18.810Z,11.80
2018-10-16T02:35:47.424Z,11.80
2018-10-16T02:38:15.823Z,11.80
2018-10-16T02:40:44.314Z,11.80
2018-10-16T02:43:12.790Z,11.70
2018-10-16T02:45:41.268Z,11.60
2018-10-16T02:48:09.782Z,11.50
2018-10-16T02:50:38.250Z,11.50
2018-10-16T02:53:06.718Z,11.40
2018-10-16T02:55:35.179Z,11.50
2018-10-16T02:58:03.841Z,11.50
2018-10-16T03:00:32.300Z,11.40
2018-10-16T03:03:00.765Z,11.40
2018-10-16T03:05:29.246Z,11.40
2018-10-16T03:07:57.718Z,11.40
2018-10-16T03:10:26.233Z,11.40
2018-10-16T03:12:54.697Z,11.50
2018-10-16T03:15:23.195Z,11.50
2018-10-16T03:17:51.654Z,11.40
2018-10-16T03:20:20.187Z,11.40
2018-10-16T03:22:48.670Z,11.40
2018-10-16T03:25:17.125Z,11.40
2018-10-16T03:27:45.589Z,11.30
2018-10-16T03:30:14.082Z,11.20
2018-10-16T03:32:42.585Z,11.20
2018-10-16T03:35:12.016Z,11.20
2018-10-16T03:37:41.448Z,11.20
2018-10-16T03:40:10.926Z,11.10
2018-10-16T03:42:40.463Z,11.00
2018-10-16T03:45:10.745Z,11.00
2018-10-16T03:47:39.705Z,10.90
2018-10-16T03:50:09.170Z,10.90
2018-10-16T03:52:37.661Z,10.90
2018-10-16T03:55:06.630Z,11.00
2018-10-16T03:57:35.111Z,11.00
2018-10-16T04:00:03.671Z,11.00
2018-10-16T04:02:32.145Z,10.90
2018-10-16T04:05:00.633Z,11.00
2018-10-16T04:07:29.155Z,11.00
2018-10-16T04:09:57.591Z,10.90
2018-10-16T04:12:26.062Z,10.90
2018-10-16T04:14:54.504Z,10.90
2018-10-16T04:17:22.974Z,10.90
2018-10-16T04:19:51.748Z,10.80
2018-10-16T04:22:20.302Z,10.80
2018-10-16T04:24:48.742Z,10.80
2018-10-16T04:27:17.198Z,10.70
2018-10-16T04:29:45.661Z,10.60
2018-10-16T04:32:14.138Z,10.60
2018-10-16T04:34:42.639Z,10.60
2018-10-16T04:37:11.073Z,10.60
2018-10-16T04:39:39.553Z,10.60
2018-10-16T04:42:08.011Z,10.60
2018-10-16T04:44:36.497Z,10.60
2018-10-16T04:47:05.455Z,10.60
2018-10-16T04:49:33.902Z,10.50
2018-10-16T04:52:02.346Z,10.40
2018-10-16T04:54:30.854Z,10.40
2018-10-16T04:56:59.305Z,10.40
2018-10-16T04:59:27.844Z,10.50
2018-10-16T05:01:56.292Z,10.50
2018-10-16T05:04:24.794Z,10.50
2018-10-16T05:06:53.273Z,10.50
2018-10-16T05:09:21.758Z,10.50
2018-10-16T05:11:52.115Z,10.50
2018-10-16T05:14:20.588Z,10.50
2018-10-16T05:16:49.052Z,10.50
2018-10-16T05:19:17.664Z,10.50
2018-10-16T05:21:45.974Z,10.60
2018-10-16T05:24:14.420Z,10.60
2018-10-16T05:26:42.927Z,10.60
2018-10-16T05:29:11.666Z,10.70
2018-10-16T05:31:40.221Z,10.70
2018-10-16T05:34:09.332Z,10.70
2018-10-16T05:36:38.247Z,10.70
2018-10-16T05:39:09.321Z,10.80
2018-10-16T05:41:37.829Z,10.80
2018-10-16T05:44:06.403Z,10.80
2018-10-16T05:46:34.858Z,10.80
2018-10-16T05:49:03.478Z,10.90
2018-10-16T05:51:31.925Z,10.80
2018-10-16T05:54:00.399Z,10.80
2018-10-16T05:56:28.874Z,10.80
2018-10-16T05:58:57.319Z,10.80
2018-10-16T06:01:26.176Z,10.90
2018-10-16T06:03:54.609Z,11.00
2018-10-16T06:06:23.059Z,11.00
2018-10-16T06:08:51.553Z,11.10
2018-10-16T06:11:20.000Z,11.10
2018-10-16T06:13:48.694Z,11.10
2018-10-16T06:16:17.158Z,11.10
2018-10-16T06:18:45.627Z,11.20
2018-10-16T06:21:14.103Z,11.30
2018-10-16T06:23:42.577Z,11.30
2018-10-16T06:26:11.066Z,11.40
2018-10-16T06:28:39.515Z,11.40
2018-10-16T06:31:07.993Z,11.40
2018-10-16T06:33:36.533Z,11.40
2018-10-16T06:36:05.225Z,11.50
2018-10-16T06:38:33.686Z,11.60
2018-10-16T06:41:02.301Z,11.60
2018-10-16T06:43:30.934Z,11.70
2018-10-16T06:45:59.381Z,11.80
2018-10-16T06:48:27.994Z,11.90
2018-10-16T06:50:56.331Z,11.90
2018-10-16T06:53:24.858Z,12.00
2018-10-16T06:55:53.410Z,12.00
2018-10-16T06:58:21.877Z,12.10
2018-10-16T07:00:50.335Z,12.20
2018-10-16T07:03:18.791Z,12.20
2018-10-16T07:05:47.257Z,12.30
2018-10-16T07:08:15.749Z,12.30
2018-10-16T07:10:44.245Z,12.40
2018-10-16T07:13:12.687Z,12.50
2018-10-16T07:15:41.185Z,12.60
2018-10-16T07:18:09.643Z,12.70
2018-10-16T07:20:38.120Z,12.80
2018-10-16T07:23:06.633Z,12.80
2018-10-16T07:25:35.133Z,12.90
2018-10-16T07:28:03.634Z,12.90
2018-10-16T07:30:32.093Z,12.90
2018-10-16T07:33:00.549Z,12.90
2018-10-16T07:35:29.069Z,12.90
2018-10-16T07:37:57.712Z,12.90
2018-10-16T07:40:26.051Z,12.90
2018-10-16T07:42:54.502Z,13.00
2018-10-16T07:45:22.950Z,12.90
2018-10-16T07:47:51.421Z,12.90
2018-10-16T07:50:19.909Z,13.00
2018-10-16T07:52:48.379Z,13.00
2018-10-16T07:55:16.877Z,13.00
2018-10-16T07:57:45.313Z,13.10
2018-10-16T08:00:13.845Z,13.30
2018-10-16T08:02:43.549Z,13.40
2018-10-16T08:05:12.882Z,13.60
2018-10-16T08:07:42.071Z,13.70
2018-10-16T08:10:12.326Z,13.80
2018-10-16T08:12:40.983Z,13.90
2018-10-16T08:15:10.094Z,14.20
2018-10-16T08:17:38.966Z,14.30
2018-10-16T08:20:07.434Z,14.50
2018-10-16T08:22:35.886Z,14.60
2018-10-16T08:25:04.657Z,14.80
2018-10-16T08:27:33.207Z,14.80
2018-10-16T08:30:01.860Z,14.90
2018-10-16T08:32:30.442Z,15.10
2018-10-16T08:34:59.062Z,15.20
2018-10-16T08:38:36.442Z,15.30
2018-10-16T08:41:07.208Z,15.50
2018-10-16T08:43:48.586Z,15.60
2018-10-16T08:46:28.766Z,15.70
2018-10-16T08:49:08.774Z,15.70
2018-10-16T08:51:43.715Z,15.80
2018-10-16T08:54:12.209Z,15.80
2018-10-16T08:56:40.999Z,15.80
2018-10-16T08:59:09.522Z,15.90
2018-10-16T09:01:37.978Z,16.00
2018-10-16T09:04:06.581Z,16.10
2018-10-16T09:06:35.122Z,16.40
2018-10-16T09:09:05.230Z,16.50
2018-10-16T09:11:33.680Z,16.70
2018-10-16T09:14:02.217Z,16.70
2018-10-16T09:16:30.699Z,16.80
2018-10-16T09:18:59.165Z,16.80
2018-10-16T09:21:27.637Z,16.90
2018-10-16T09:23:56.117Z,17.00
2018-10-16T09:26:24.614Z,17.20
2018-10-16T09:28:53.125Z,17.30
2018-10-16T09:31:21.587Z,17.40
2018-10-16T09:33:50.039Z,17.50
2018-10-16T09:36:18.696Z,17.60
2018-10-16T09:38:47.183Z,17.60
2018-10-16T09:41:15.654Z,17.70
2018-10-16T09:43:44.139Z,17.70
2018-10-16T09:46:12.591Z,17.90
2018-10-16T09:48:41.106Z,18.00
2018-10-16T09:51:09.593Z,18.10
2018-10-16T09:53:38.079Z,18.00
2018-10-16T09:56:06.612Z,18.00
2018-10-16T09:58:35.062Z,18.00
2018-10-16T10:01:09.010Z,18.00
2018-10-16T10:03:37.468Z,18.00
2018-10-16T10:06:05.974Z,18.10
2018-10-16T10:08:34.463Z,18.20
2018-10-16T10:11:03.030Z,18.20
2018-10-16T10:13:31.469Z,18.30
2018-10-16T10:15:59.930Z,18.30
2018-10-16T10:18:28.410Z,18.40
2018-10-16T10:20:56.870Z,18.40
2018-10-16T10:23:25.395Z,18.40
2018-10-16T10:25:53.861Z,18.30
2018-10-16T10:28:22.295Z,18.30
2018-10-16T10:30:50.775Z,18.50
2018-10-16T10:33:19.210Z,18.60
2018-10-16T10:35:47.785Z,18.80
2018-10-16T10:38:16.389Z,18.80
2018-10-16T10:40:44.855Z,18.80
2018-10-16T10:43:13.302Z,18.90
2018-10-16T10:45:41.806Z,18.90
2018-10-16T10:48:10.382Z,18.90
2018-10-16T10:50:39.209Z,19.00
2018-10-16T10:53:07.385Z,19.00
2018-10-16T10:55:35.870Z,19.10
2018-10-16T10:58:04.345Z,19.20
2018-10-16T11:00:32.855Z,19.20
2018-10-16T11:03:01.446Z,19.30
2018-10-16T11:05:29.861Z,19.30
2018-10-16T11:07:58.301Z,19.40
2018-10-16T11:10:26.758Z,19.40
2018-10-16T11:12:55.227Z,19.60
2018-10-16T11:15:23.736Z,19.60
2018-10-16T11:17:52.205Z,19.60
2018-10-16T11:20:20.685Z,19.50
2018-10-16T11:22:49.210Z,19.50
2018-10-16T11:25:17.652Z,19.60
2018-10-16T11:27:46.289Z,19.60
2018-10-16T11:30:15.639Z,19.60
2018-10-16T11:32:44.257Z,19.70
2018-10-16T11:35:13.959Z,19.70
2018-10-16T11:37:42.516Z,19.80
2018-10-16T11:40:11.451Z,19.80
2018-10-16T11:42:40.656Z,19.60
2018-10-16T11:45:09.344Z,19.60
2018-10-16T11:47:38.413Z,19.50
2018-10-16T11:50:08.301Z,19.40
2018-10-16T11:52:36.769Z,19.50
2018-10-16T11:55:06.378Z,19.40
2018-10-16T11:57:34.848Z,19.40
2018-10-16T12:00:03.423Z,19.30
2018-10-16T12:02:32.045Z,19.30
2018-10-16T12:05:00.453Z,19.30
2018-10-16T12:07:28.914Z,19.20
2018-10-16T12:09:57.374Z,19.20
2018-10-16T12:12:25.878Z,19.20
2018-10-16T12:14:54.375Z,19.20
2018-10-16T12:17:31.982Z,19.20
2018-10-16T12:20:04.075Z,19.20
2018-10-16T12:22:32.638Z,19.20
2018-10-16T12:25:01.164Z,19.20
2018-10-16T12:27:29.618Z,19.30
2018-10-16T12:29:58.110Z,19.20
2018-10-16T12:32:26.621Z,19.30
2018-10-16T12:34:55.114Z,19.40
2018-10-16T12:37:23.606Z,19.40
2018-10-16T12:39:52.150Z,19.30
2018-10-16T12:42:20.548Z,19.30
2018-10-16T12:44:49.062Z,19.20
2018-10-16T12:47:17.520Z,19.10
2018-10-16T12:49:45.987Z,19.10
2018-10-16T12:52:14.558Z,19.00
2018-10-16T12:54:42.989Z,19.00
2018-10-16T12:57:11.488Z,18.90
2018-10-16T12:59:39.981Z,18.90
2018-10-16T13:02:08.568Z,19.00
2018-10-16T13:04:37.031Z,19.00
2018-10-16T13:07:10.180Z,19.00
2018-10-16T13:09:38.682Z,19.00
2018-10-16T13:12:07.190Z,18.90
2018-10-16T13:14:35.705Z,19.00
2018-10-16T13:17:04.259Z,19.00
2018-10-16T13:19:32.725Z,19.00
2018-10-16T13:22:01.221Z,19.00
2018-10-16T13:24:29.622Z,18.90
2018-10-16T13:26:58.117Z,18.90
2018-10-16T13:29:26.724Z,19.00
2018-10-16T13:31:55.068Z,19.00
2018-10-16T13:34:23.548Z,19.10
2018-10-16T13:36:52.046Z,19.00
2018-10-16T13:39:20.498Z,19.00
2018-10-16T13:41:48.966Z,19.00
2018-10-16T13:44:17.458Z,18.90
2018-10-16T13:46:45.930Z,18.90
2018-10-16T13:49:14.381Z,18.80
2018-10-16T13:51:42.878Z,18.80
2018-10-16T13:54:11.330Z,18.70
2018-10-16T13:56:39.849Z,18.70
2018-10-16T13:59:08.250Z,18.70
2018-10-16T14:01:36.725Z,18.60
2018-10-16T14:04:05.273Z,18.60
2018-10-16T14:06:33.723Z,18.60
2018-10-16T14:09:02.262Z,18.60
2018-10-16T14:11:30.762Z,18.50
2018-10-16T14:13:59.263Z,18.50
2018-10-16T14:16:27.753Z,18.50
2018-10-16T14:18:56.238Z,18.40
2018-10-16T14:21:25.198Z,18.40
2018-10-16T14:23:53.662Z,18.30
2018-10-16T14:26:22.161Z,18.30
2018-10-16T14:28:50.641Z,18.30
2018-10-16T14:31:19.129Z,18.20
2018-10-16T14:33:47.665Z,18.10
2018-10-16T14:36:16.085Z,18.10
2018-10-16T14:38:44.540Z,18.00
2018-10-16T14:41:13.043Z,18.00
2018-10-16T14:43:41.499Z,17.90
2018-10-16T14:46:10.006Z,17.90
2018-10-16T14:48:38.460Z,17.90
2018-10-16T14:51:06.918Z,17.80
2018-10-16T14:53:35.393Z,17.70
2018-10-16T14:56:03.909Z,17.70
2018-10-16T14:58:32.351Z,17.70
2018-10-16T15:01:00.869Z,17.60
2018-10-16T15:03:29.341Z,17.50
2018-10-16T15:05:57.818Z,17.50
2018-10-16T15:08:26.316Z,17.40
2018-10-16T15:10:54.790Z,17.30
2018-10-16T15:13:23.283Z,17.20
2018-10-16T15:15:51.754Z,17.20
2018-10-16T15:18:20.211Z,17.10
2018-10-16T15:20:48.668Z,17.10
2018-10-16T15:23:17.153Z,17.00
2018-10-16T15:25:45.601Z,17.00
2018-10-16T15:28:14.102Z,16.90
2018-10-16T15:30:42.510Z,16.80
2018-10-16T15:33:10.989Z,16.80
2018-10-16T15:35:39.551Z,16.70
2018-10-16T15:38:08.046Z,16.60
2018-10-16T15:40:36.500Z,16.50
2018-10-16T15:43:04.999Z,16.50
2018-10-16T15:45:33.494Z,16.40
2018-10-16T15:48:01.982Z,16.30
2018-10-16T15:50:30.460Z,16.20
2018-10-16T15:52:58.911Z,16.20
2018-10-16T15:55:27.362Z,16.10
2018-10-16T15:57:55.874Z,16.00
2018-10-16T16:00:24.342Z,16.00
2018-10-16T16:02:52.843Z,15.90
2018-10-16T16:05:21.338Z,15.80
2018-10-16T16:07:49.811Z,15.70
2018-10-16T16:10:18.291Z,15.70
2018-10-16T16:12:46.743Z,15.60
2018-10-16T16:15:15.229Z,15.50
2018-10-16T16:17:44.224Z,15.40
2018-10-16T16:20:14.041Z,15.40
2018-10-16T16:22:42.509Z,15.30
2018-10-16T16:25:13.104Z,15.20
2018-10-16T16:27:41.580Z,15.10
2018-10-16T16:30:12.207Z,15.10
2018-10-16T16:32:40.918Z,15.00
2018-10-16T16:35:09.463Z,14.90
2018-10-16T16:37:37.899Z,14.80
2018-10-16T16:40:08.367Z,14.80
2018-10-16T16:42:36.817Z,14.70
2018-10-16T16:45:06.093Z,14.60
2018-10-16T16:47:34.542Z,14.60
2018-10-16T16:50:03.053Z,14.50
2018-10-16T16:52:31.523Z,14.50
2018-10-16T16:54:59.975Z,14.40
2018-10-16T16:57:28.502Z,14.40
2018-10-16T16:59:56.986Z,14.30
2018-10-16T17:02:25.435Z,14.30
2018-10-16T17:04:53.909Z,14.20
2018-10-16T17:07:22.381Z,14.20
2018-10-16T17:09:50.847Z,14.10
2018-10-16T17:12:19.351Z,14.10
2018-10-16T17:14:47.787Z,14.00
2018-10-16T17:17:16.267Z,14.00
2018-10-16T17:19:44.730Z,13.90
2018-10-16T17:22:13.196Z,13.90
2018-10-16T17:24:41.765Z,13.80
2018-10-16T17:27:10.138Z,13.80
2018-10-16T17:29:38.622Z,13.70
2018-10-16T17:32:07.093Z,13.70
2018-10-16T17:34:35.741Z,13.60
2018-10-16T17:37:04.253Z,13.60
2018-10-16T17:39:32.773Z,13.50
2018-10-16T17:42:01.229Z,13.50
2018-10-16T17:44:29.698Z,13.50
2018-10-16T17:46:59.169Z,13.50
2018-10-16T17:49:27.667Z,13.40
2018-10-16T17:51:56.138Z,13.40
2018-10-16T17:54:24.588Z,13.30
2018-10-16T17:56:53.115Z,13.30
2018-10-16T17:59:21.575Z,13.20
2018-10-16T18:01:50.058Z,13.20
2018-10-16T18:04:18.542Z,13.10
2018-10-16T18:06:46.990Z,13.10
2018-10-16T18:09:15.460Z,13.00
2018-10-16T18:11:44.066Z,13.00
2018-10-16T18:14:12.506Z,13.00
2018-10-16T18:16:41.054Z,12.90
2018-10-16T18:19:09.538Z,12.90
2018-10-16T18:21:37.997Z,12.90
2018-10-16T18:24:06.939Z,12.80
2018-10-16T18:26:35.402Z,12.80
2018-10-16T18:29:03.893Z,12.70
2018-10-16T18:31:32.351Z,12.60
2018-10-16T18:34:00.827Z,12.50
2018-10-16T18:36:29.294Z,12.60
2018-10-16T18:38:57.821Z,12.50
2018-10-16T18:41:26.255Z,12.50
2018-10-16T18:43:54.738Z,12.50
2018-10-16T18:46:23.203Z,12.50
2018-10-16T18:48:51.720Z,12.40
2018-10-16T18:51:20.203Z,12.40
2018-10-16T18:53:48.721Z,12.40
2018-10-16T18:56:17.202Z,12.40
2018-10-16T18:58:45.798Z,12.40
2018-10-16T19:01:14.295Z,12.30
2018-10-16T19:03:42.798Z,12.20
2018-10-16T19:06:11.237Z,12.20
2018-10-16T19:08:39.719Z,12.20
2018-10-16T19:11:08.197Z,12.10
2018-10-16T19:13:36.670Z,12.10
2018-10-16T19:16:05.634Z,12.10
2018-10-16T19:18:34.098Z,12.10
2018-10-16T19:21:02.570Z,12.00
2018-10-16T19:23:31.050Z,12.00
2018-10-16T19:25:59.486Z,11.90
2018-10-16T19:28:27.973Z,11.90
2018-10-16T19:30:56.467Z,11.80
2018-10-16T19:33:24.931Z,11.70
2018-10-16T19:35:53.417Z,11.70
2018-10-16T19:38:21.902Z,11.70
2018-10-16T19:40:50.342Z,11.70
2018-10-16T19:43:18.802Z,11.70
2018-10-16T19:45:47.285Z,11.70
2018-10-16T19:48:15.777Z,11.70
2018-10-16T19:50:44.246Z,11.70
2018-10-16T19:53:12.746Z,11.70
2018-10-16T19:55:41.225Z,11.70
2018-10-16T19:58:09.682Z,11.60
2018-10-16T20:00:38.115Z,11.70
2018-10-16T20:03:06.597Z,11.60
2018-10-16T20:05:35.091Z,11.70
2018-10-16T20:08:03.635Z,11.60
2018-10-16T20:10:32.125Z,11.60
2018-10-16T20:13:00.583Z,11.50
2018-10-16T20:15:29.059Z,11.40
2018-10-16T20:17:57.523Z,11.40
2018-10-16T20:20:26.013Z,11.40
2018-10-16T20:22:54.467Z,11.40
2018-10-16T20:25:23.042Z,11.40
2018-10-16T20:27:51.478Z,11.40
2018-10-16T20:30:19.947Z,11.30
2018-10-16T20:32:48.394Z,11.20
2018-10-16T20:35:16.889Z,11.20
2018-10-16T20:37:45.350Z,11.20
2018-10-16T20:40:13.823Z,11.20
2018-10-16T20:42:42.282Z,11.20
2018-10-16T20:45:10.735Z,11.10
2018-10-16T20:47:39.240Z,11.20
2018-10-16T20:50:07.881Z,11.10
2018-10-16T20:52:36.498Z,11.10
2018-10-16T20:55:05.661Z,11.10
2018-10-16T20:57:34.103Z,11.00
2018-10-16T21:00:03.286Z,11.10
2018-10-16T21:02:31.723Z,11.00
2018-10-16T21:05:00.502Z,10.90
2018-10-16T21:07:28.805Z,10.90
2018-10-16T21:09:57.266Z,10.90
2018-10-16T21:12:25.714Z,10.80
2018-10-16T21:14:54.186Z,10.90
2018-10-16T21:17:22.622Z,10.90
2018-10-16T21:19:51.116Z,10.90
2018-10-16T21:22:19.569Z,10.90
2018-10-16T21:24:48.015Z,10.80
2018-10-16T21:27:16.470Z,10.80
2018-10-16T21:29:44.945Z,10.80
2018-10-16T21:32:13.473Z,10.80
2018-10-16T21:34:41.922Z,10.80
2018-10-16T21:37:10.445Z,10.80
2018-10-16T21:39:39.305Z,10.80
2018-10-16T21:42:08.097Z,10.70
2018-10-16T21:44:36.589Z,10.70
2018-10-16T21:47:05.492Z,10.70
2018-10-16T21:49:33.936Z,10.80
2018-10-16T21:52:02.394Z,10.80
2018-10-16T21:54:30.846Z,10.80
2018-10-16T21:56:59.368Z,10.80
2018-10-16T21:59:27.874Z,10.80
2018-10-16T22:02:01.834Z,10.80
2018-10-16T22:04:30.337Z,10.80
2018-10-16T22:06:58.849Z,10.90
2018-10-16T22:09:27.317Z,10.90
2018-10-16T22:11:55.787Z,10.90
2018-10-16T22:14:24.279Z,10.90
2018-10-16T22:16:53.661Z,10.90
2018-10-16T22:19:22.092Z,10.90
2018-10-16T22:21:50.577Z,10.80
2018-10-16T22:24:19.025Z,10.80
2018-10-16T22:26:47.517Z,10.70
2018-10-16T22:29:15.964Z,10.80
2018-10-16T22:31:44.481Z,10.70
2018-10-16T22:34:12.973Z,10.60
2018-10-16T22:36:41.454Z,10.60
2018-10-16T22:39:10.781Z,10.50
2018-10-16T22:41:39.553Z,10.50
2018-10-16T22:44:08.659Z,10.60
2018-10-16T22:46:37.420Z,10.50
2018-10-16T22:49:06.378Z,10.50
2018-10-16T22:51:34.824Z,10.50
2018-10-16T22:54:03.337Z,10.40
2018-10-16T22:56:31.814Z,10.40
2018-10-16T22:59:00.319Z,10.40
2018-10-16T23:01:28.805Z,10.40
2018-10-16T23:03:57.326Z,10.40
2018-10-16T23:06:25.824Z,10.40
2018-10-16T23:08:54.289Z,10.40
2018-10-16T23:11:22.716Z,10.30
2018-10-16T23:13:51.213Z,10.30
2018-10-16T23:16:19.673Z,10.30
2018-10-16T23:18:48.135Z,10.30
2018-10-16T23:21:16.579Z,10.30
2018-10-16T23:23:45.031Z,10.30
2018-10-16T23:26:13.513Z,10.30
2018-10-16T23:28:42.005Z,10.30
2018-10-16T23:31:10.558Z,10.30
2018-10-16T23:33:38.966Z,10.30
2018-10-16T23:36:07.518Z,10.20
2018-10-16T23:38:35.985Z,10.20
2018-10-16T23:41:04.512Z,10.20
2018-10-16T23:43:32.996Z,10.20
2018-10-16T23:46:01.416Z,10.20
2018-10-16T23:48:29.932Z,10.20
2018-10-16T23:50:58.394Z,10.20
2018-10-16T23:53:26.819Z,10.10
2018-10-16T23:55:55.301Z,10.10
2018-10-16T23:58:23.746Z,10.00
